sensor_id;sensor_type;location;lat;lon;timestamp;P1;durP1;ratioP1;P2;durP2;ratioP2
67049;SDS011;53955;52.442;13.284;2023-04-24T00:01:34;6.30;;;4.67;;
67049;SDS011;53955;52.442;13.284;2023-04-24T00:04:03;6.10;;;4.65;;
67049;SDS011;53955;52.442;13.284;2023-04-24T00:06:29;5.70;;;4.72;;
67049;SDS011;53955;52.442;13.284;2023-04-24T00:08:58;6.82;;;4.55;;
67049;SDS011;53955;52.442;13.284;2023-04-24T00:11:24;7.43;;;4.82;;
67049;SDS011;53955;52.442;13.284;2023-04-24T00:13:51;6.57;;;4.53;;
67049;SDS011;53955;52.442;13.284;2023-04-24T00:16:18;5.45;;;4.18;;
67049;SDS011;53955;52.442;13.284;2023-04-24T00:18:45;7.35;;;4.88;;
67049;SDS011;53955;52.442;13.284;2023-04-24T00:21:14;6.65;;;4.68;;
67049;SDS011;53955;52.442;13.284;2023-04-24T00:23:41;6.93;;;4.80;;
67049;SDS011;53955;52.442;13.284;2023-04-24T00:26:07;6.10;;;4.90;;
67049;SDS011;53955;52.442;13.284;2023-04-24T00:28:34;6.57;;;4.72;;
67049;SDS011;53955;52.442;13.284;2023-04-24T00:31:00;6.10;;;4.40;;
67049;SDS011;53955;52.442;13.284;2023-04-24T00:33:27;5.97;;;5.07;;
67049;SDS011;53955;52.442;13.284;2023-04-24T00:35:54;6.88;;;4.93;;
67049;SDS011;53955;52.442;13.284;2023-04-24T00:38:21;5.43;;;4.25;;
67049;SDS011;53955;52.442;13.284;2023-04-24T00:40:48;6.50;;;5.30;;
67049;SDS011;53955;52.442;13.284;2023-04-24T00:43:15;7.25;;;4.93;;
67049;SDS011;53955;52.442;13.284;2023-04-24T00:45:41;6.80;;;5.10;;
67049;SDS011;53955;52.442;13.284;2023-04-24T00:48:09;6.68;;;5.47;;
67049;SDS011;53955;52.442;13.284;2023-04-24T00:50:36;6.18;;;4.97;;
67049;SDS011;53955;52.442;13.284;2023-04-24T00:53:03;6.55;;;4.95;;
67049;SDS011;53955;52.442;13.284;2023-04-24T00:55:31;6.45;;;5.22;;
67049;SDS011;53955;52.442;13.284;2023-04-24T00:57:58;6.30;;;4.80;;
67049;SDS011;53955;52.442;13.284;2023-04-24T01:00:25;6.53;;;4.55;;
67049;SDS011;53955;52.442;13.284;2023-04-24T01:02:52;6.65;;;4.68;;
67049;SDS011;53955;52.442;13.284;2023-04-24T01:05:19;6.63;;;4.40;;
67049;SDS011;53955;52.442;13.284;2023-04-24T01:07:46;7.28;;;4.70;;
67049;SDS011;53955;52.442;13.284;2023-04-24T01:10:14;6.32;;;4.80;;
67049;SDS011;53955;52.442;13.284;2023-04-24T01:12:43;6.90;;;4.60;;
67049;SDS011;53955;52.442;13.284;2023-04-24T01:15:10;5.95;;;4.72;;
67049;SDS011;53955;52.442;13.284;2023-04-24T01:17:36;7.53;;;4.68;;
67049;SDS011;53955;52.442;13.284;2023-04-24T01:20:04;6.32;;;5.10;;
67049;SDS011;53955;52.442;13.284;2023-04-24T01:22:33;7.15;;;5.00;;
67049;SDS011;53955;52.442;13.284;2023-04-24T01:25:00;7.50;;;4.45;;
67049;SDS011;53955;52.442;13.284;2023-04-24T01:27:27;7.10;;;5.07;;
67049;SDS011;53955;52.442;13.284;2023-04-24T01:29:54;6.63;;;5.30;;
67049;SDS011;53955;52.442;13.284;2023-04-24T01:32:20;7.13;;;5.40;;
67049;SDS011;53955;52.442;13.284;2023-04-24T01:34:47;7.75;;;4.80;;
67049;SDS011;53955;52.442;13.284;2023-04-24T01:37:15;7.82;;;4.68;;
67049;SDS011;53955;52.442;13.284;2023-04-24T01:39:43;9.43;;;5.00;;
67049;SDS011;53955;52.442;13.284;2023-04-24T01:42:09;6.75;;;4.70;;
67049;SDS011;53955;52.442;13.284;2023-04-24T01:44:36;7.05;;;4.97;;
67049;SDS011;53955;52.442;13.284;2023-04-24T01:47:03;11.05;;;5.15;;
67049;SDS011;53955;52.442;13.284;2023-04-24T01:49:31;6.10;;;4.65;;
67049;SDS011;53955;52.442;13.284;2023-04-24T01:51:58;6.20;;;4.60;;
67049;SDS011;53955;52.442;13.284;2023-04-24T01:54:25;5.93;;;4.78;;
67049;SDS011;53955;52.442;13.284;2023-04-24T01:56:53;5.43;;;4.47;;
67049;SDS011;53955;52.442;13.284;2023-04-24T01:59:19;7.32;;;4.97;;
67049;SDS011;53955;52.442;13.284;2023-04-24T02:01:47;7.00;;;4.95;;
67049;SDS011;53955;52.442;13.284;2023-04-24T02:04:14;6.63;;;5.10;;
67049;SDS011;53955;52.442;13.284;2023-04-24T02:06:41;6.95;;;5.13;;
67049;SDS011;53955;52.442;13.284;2023-04-24T02:09:07;6.35;;;4.95;;
67049;SDS011;53955;52.442;13.284;2023-04-24T02:11:34;6.28;;;5.13;;
67049;SDS011;53955;52.442;13.284;2023-04-24T02:14:02;7.00;;;4.97;;
67049;SDS011;53955;52.442;13.284;2023-04-24T02:16:28;7.38;;;5.03;;
67049;SDS011;53955;52.442;13.284;2023-04-24T02:18:57;6.43;;;5.07;;
67049;SDS011;53955;52.442;13.284;2023-04-24T02:21:24;7.00;;;5.28;;
67049;SDS011;53955;52.442;13.284;2023-04-24T02:23:52;6.07;;;4.72;;
67049;SDS011;53955;52.442;13.284;2023-04-24T02:26:18;7.30;;;5.35;;
67049;SDS011;53955;52.442;13.284;2023-04-24T02:28:45;7.18;;;4.75;;
67049;SDS011;53955;52.442;13.284;2023-04-24T02:31:13;8.65;;;5.70;;
67049;SDS011;53955;52.442;13.284;2023-04-24T02:33:40;7.32;;;5.22;;
67049;SDS011;53955;52.442;13.284;2023-04-24T02:36:07;6.85;;;5.00;;
67049;SDS011;53955;52.442;13.284;2023-04-24T02:38:33;9.80;;;5.35;;
67049;SDS011;53955;52.442;13.284;2023-04-24T02:41:00;7.43;;;5.25;;
67049;SDS011;53955;52.442;13.284;2023-04-24T02:43:27;7.70;;;5.00;;
67049;SDS011;53955;52.442;13.284;2023-04-24T02:45:53;7.57;;;5.75;;
67049;SDS011;53955;52.442;13.284;2023-04-24T02:48:21;8.68;;;5.72;;
67049;SDS011;53955;52.442;13.284;2023-04-24T02:50:48;7.53;;;5.53;;
67049;SDS011;53955;52.442;13.284;2023-04-24T02:53:15;6.82;;;5.45;;
67049;SDS011;53955;52.442;13.284;2023-04-24T02:55:42;6.50;;;4.80;;
67049;SDS011;53955;52.442;13.284;2023-04-24T02:58:08;7.80;;;5.30;;
67049;SDS011;53955;52.442;13.284;2023-04-24T03:00:37;6.47;;;5.40;;
67049;SDS011;53955;52.442;13.284;2023-04-24T03:03:04;6.82;;;5.32;;
67049;SDS011;53955;52.442;13.284;2023-04-24T03:05:33;6.88;;;5.70;;
67049;SDS011;53955;52.442;13.284;2023-04-24T03:07:59;6.45;;;5.25;;
67049;SDS011;53955;52.442;13.284;2023-04-24T03:10:26;7.63;;;5.32;;
67049;SDS011;53955;52.442;13.284;2023-04-24T03:12:53;7.13;;;5.18;;
67049;SDS011;53955;52.442;13.284;2023-04-24T03:15:19;8.35;;;5.20;;
67049;SDS011;53955;52.442;13.284;2023-04-24T03:17:46;8.70;;;5.88;;
67049;SDS011;53955;52.442;13.284;2023-04-24T03:20:13;8.48;;;6.10;;
67049;SDS011;53955;52.442;13.284;2023-04-24T03:22:41;6.70;;;5.45;;
67049;SDS011;53955;52.442;13.284;2023-04-24T03:25:08;7.15;;;5.07;;
67049;SDS011;53955;52.442;13.284;2023-04-24T03:27:35;6.78;;;5.07;;
67049;SDS011;53955;52.442;13.284;2023-04-24T03:30:02;9.25;;;6.20;;
67049;SDS011;53955;52.442;13.284;2023-04-24T03:32:29;7.32;;;5.80;;
67049;SDS011;53955;52.442;13.284;2023-04-24T03:34:57;8.38;;;5.78;;
67049;SDS011;53955;52.442;13.284;2023-04-24T03:37:23;6.45;;;5.10;;
67049;SDS011;53955;52.442;13.284;2023-04-24T03:39:52;6.43;;;5.13;;
67049;SDS011;53955;52.442;13.284;2023-04-24T03:42:19;6.95;;;5.28;;
67049;SDS011;53955;52.442;13.284;2023-04-24T03:44:45;6.55;;;5.18;;
67049;SDS011;53955;52.442;13.284;2023-04-24T03:47:12;7.03;;;5.55;;
67049;SDS011;53955;52.442;13.284;2023-04-24T03:49:38;7.07;;;5.50;;
67049;SDS011;53955;52.442;13.284;2023-04-24T03:52:05;11.63;;;6.13;;
67049;SDS011;53955;52.442;13.284;2023-04-24T03:54:32;6.97;;;5.30;;
67049;SDS011;53955;52.442;13.284;2023-04-24T03:56:59;6.95;;;5.22;;
67049;SDS011;53955;52.442;13.284;2023-04-24T03:59:28;8.90;;;5.70;;
67049;SDS011;53955;52.442;13.284;2023-04-24T04:01:54;8.27;;;5.97;;
67049;SDS011;53955;52.442;13.284;2023-04-24T04:04:21;7.63;;;5.70;;
67049;SDS011;53955;52.442;13.284;2023-04-24T04:06:48;6.57;;;5.50;;
67049;SDS011;53955;52.442;13.284;2023-04-24T04:09:14;8.55;;;5.10;;
67049;SDS011;53955;52.442;13.284;2023-04-24T04:11:41;7.22;;;5.25;;
67049;SDS011;53955;52.442;13.284;2023-04-24T04:14:09;9.07;;;5.80;;
67049;SDS011;53955;52.442;13.284;2023-04-24T04:16:35;7.15;;;5.13;;
67049;SDS011;53955;52.442;13.284;2023-04-24T04:19:02;8.27;;;5.22;;
67049;SDS011;53955;52.442;13.284;2023-04-24T04:21:28;7.07;;;5.07;;
67049;SDS011;53955;52.442;13.284;2023-04-24T04:23:56;6.57;;;5.30;;
67049;SDS011;53955;52.442;13.284;2023-04-24T04:26:22;6.47;;;5.07;;
67049;SDS011;53955;52.442;13.284;2023-04-24T04:28:50;6.95;;;4.63;;
67049;SDS011;53955;52.442;13.284;2023-04-24T04:31:18;5.65;;;4.57;;
67049;SDS011;53955;52.442;13.284;2023-04-24T04:33:45;6.05;;;4.38;;
67049;SDS011;53955;52.442;13.284;2023-04-24T04:36:12;6.05;;;4.43;;
67049;SDS011;53955;52.442;13.284;2023-04-24T04:38:39;5.00;;;3.88;;
67049;SDS011;53955;52.442;13.284;2023-04-24T04:41:05;6.00;;;4.28;;
67049;SDS011;53955;52.442;13.284;2023-04-24T04:43:32;5.72;;;4.22;;
67049;SDS011;53955;52.442;13.284;2023-04-24T04:45:59;5.95;;;4.00;;
67049;SDS011;53955;52.442;13.284;2023-04-24T04:48:29;6.00;;;4.00;;
67049;SDS011;53955;52.442;13.284;2023-04-24T04:50:56;5.63;;;4.03;;
67049;SDS011;53955;52.442;13.284;2023-04-24T04:53:23;6.32;;;4.00;;
67049;SDS011;53955;52.442;13.284;2023-04-24T04:55:50;6.20;;;4.00;;
67049;SDS011;53955;52.442;13.284;2023-04-24T04:58:16;5.97;;;4.13;;
67049;SDS011;53955;52.442;13.284;2023-04-24T05:00:43;6.30;;;4.53;;
67049;SDS011;53955;52.442;13.284;2023-04-24T05:03:09;5.30;;;3.60;;
67049;SDS011;53955;52.442;13.284;2023-04-24T05:05:37;5.65;;;3.60;;
67049;SDS011;53955;52.442;13.284;2023-04-24T05:08:05;4.53;;;3.78;;
67049;SDS011;53955;52.442;13.284;2023-04-24T05:10:33;6.00;;;4.05;;
67049;SDS011;53955;52.442;13.284;2023-04-24T05:12:59;6.93;;;4.32;;
67049;SDS011;53955;52.442;13.284;2023-04-24T05:15:26;5.90;;;4.07;;
67049;SDS011;53955;52.442;13.284;2023-04-24T05:17:53;7.32;;;4.20;;
67049;SDS011;53955;52.442;13.284;2023-04-24T05:20:19;5.88;;;3.83;;
67049;SDS011;53955;52.442;13.284;2023-04-24T05:22:47;7.10;;;3.95;;
67049;SDS011;53955;52.442;13.284;2023-04-24T05:25:14;4.50;;;3.28;;
67049;SDS011;53955;52.442;13.284;2023-04-24T05:27:40;4.40;;;3.00;;
67049;SDS011;53955;52.442;13.284;2023-04-24T05:30:08;3.63;;;2.83;;
67049;SDS011;53955;52.442;13.284;2023-04-24T05:32:35;3.72;;;2.60;;
67049;SDS011;53955;52.442;13.284;2023-04-24T05:35:02;4.75;;;2.90;;
67049;SDS011;53955;52.442;13.284;2023-04-24T05:37:28;2.55;;;2.03;;
67049;SDS011;53955;52.442;13.284;2023-04-24T05:39:56;4.57;;;2.33;;
67049;SDS011;53955;52.442;13.284;2023-04-24T05:42:23;3.35;;;2.10;;
67049;SDS011;53955;52.442;13.284;2023-04-24T05:44:50;5.00;;;2.45;;
67049;SDS011;53955;52.442;13.284;2023-04-24T05:47:18;4.05;;;2.22;;
67049;SDS011;53955;52.442;13.284;2023-04-24T05:49:46;3.42;;;2.08;;
67049;SDS011;53955;52.442;13.284;2023-04-24T05:52:13;3.00;;;2.03;;
67049;SDS011;53955;52.442;13.284;2023-04-24T05:54:39;4.03;;;2.05;;
67049;SDS011;53955;52.442;13.284;2023-04-24T05:57:07;4.13;;;2.05;;
67049;SDS011;53955;52.442;13.284;2023-04-24T05:59:36;2.15;;;1.70;;
67049;SDS011;53955;52.442;13.284;2023-04-24T06:02:03;3.78;;;1.80;;
67049;SDS011;53955;52.442;13.284;2023-04-24T06:04:30;4.10;;;1.60;;
67049;SDS011;53955;52.442;13.284;2023-04-24T06:06:57;2.42;;;1.40;;
67049;SDS011;53955;52.442;13.284;2023-04-24T06:09:24;2.53;;;1.65;;
67049;SDS011;53955;52.442;13.284;2023-04-24T06:11:51;2.53;;;1.60;;
67049;SDS011;53955;52.442;13.284;2023-04-24T06:14:19;2.55;;;1.20;;
67049;SDS011;53955;52.442;13.284;2023-04-24T06:16:46;3.53;;;1.67;;
67049;SDS011;53955;52.442;13.284;2023-04-24T06:19:13;10.77;;;2.00;;
67049;SDS011;53955;52.442;13.284;2023-04-24T06:21:39;2.05;;;1.13;;
67049;SDS011;53955;52.442;13.284;2023-04-24T06:24:06;3.80;;;1.77;;
67049;SDS011;53955;52.442;13.284;2023-04-24T06:26:32;3.43;;;1.00;;
67049;SDS011;53955;52.442;13.284;2023-04-24T06:28:59;2.88;;;0.88;;
67049;SDS011;53955;52.442;13.284;2023-04-24T06:31:27;2.05;;;0.77;;
67049;SDS011;53955;52.442;13.284;2023-04-24T06:33:53;1.20;;;0.80;;
67049;SDS011;53955;52.442;13.284;2023-04-24T06:36:20;1.73;;;0.73;;
67049;SDS011;53955;52.442;13.284;2023-04-24T06:38:47;2.05;;;0.90;;
67049;SDS011;53955;52.442;13.284;2023-04-24T06:41:13;1.83;;;0.93;;
67049;SDS011;53955;52.442;13.284;2023-04-24T06:43:40;2.53;;;0.80;;
67049;SDS011;53955;52.442;13.284;2023-04-24T06:46:06;1.45;;;1.00;;
67049;SDS011;53955;52.442;13.284;2023-04-24T06:48:35;3.30;;;0.82;;
67049;SDS011;53955;52.442;13.284;2023-04-24T06:51:01;1.23;;;0.98;;
67049;SDS011;53955;52.442;13.284;2023-04-24T06:53:28;1.40;;;1.00;;
67049;SDS011;53955;52.442;13.284;2023-04-24T06:55:55;3.15;;;1.00;;
67049;SDS011;53955;52.442;13.284;2023-04-24T06:58:21;3.67;;;1.00;;
67049;SDS011;53955;52.442;13.284;2023-04-24T07:00:50;1.80;;;0.90;;
67049;SDS011;53955;52.442;13.284;2023-04-24T07:03:16;3.05;;;1.08;;
67049;SDS011;53955;52.442;13.284;2023-04-24T07:05:44;4.05;;;1.30;;
67049;SDS011;53955;52.442;13.284;2023-04-24T07:08:11;1.67;;;0.90;;
67049;SDS011;53955;52.442;13.284;2023-04-24T07:10:38;2.33;;;1.20;;
67049;SDS011;53955;52.442;13.284;2023-04-24T07:13:05;2.47;;;1.10;;
67049;SDS011;53955;52.442;13.284;2023-04-24T07:15:32;1.17;;;0.80;;
67049;SDS011;53955;52.442;13.284;2023-04-24T07:17:59;1.20;;;0.70;;
67049;SDS011;53955;52.442;13.284;2023-04-24T07:20:25;10.23;;;1.90;;
67049;SDS011;53955;52.442;13.284;2023-04-24T07:22:53;3.78;;;1.02;;
67049;SDS011;53955;52.442;13.284;2023-04-24T07:25:20;2.70;;;0.77;;
67049;SDS011;53955;52.442;13.284;2023-04-24T07:27:46;3.67;;;0.80;;
67049;SDS011;53955;52.442;13.284;2023-04-24T07:30:14;2.10;;;0.80;;
67049;SDS011;53955;52.442;13.284;2023-04-24T07:32:40;1.40;;;0.88;;
67049;SDS011;53955;52.442;13.284;2023-04-24T07:35:07;2.35;;;0.63;;
67049;SDS011;53955;52.442;13.284;2023-04-24T07:37:35;1.02;;;0.70;;
67049;SDS011;53955;52.442;13.284;2023-04-24T07:40:03;1.77;;;0.82;;
67049;SDS011;53955;52.442;13.284;2023-04-24T07:42:30;12.68;;;1.90;;
67049;SDS011;53955;52.442;13.284;2023-04-24T07:44:59;4.90;;;1.10;;
67049;SDS011;53955;52.442;13.284;2023-04-24T07:47:26;2.10;;;0.88;;
67049;SDS011;53955;52.442;13.284;2023-04-24T07:49:52;1.35;;;0.70;;
67049;SDS011;53955;52.442;13.284;2023-04-24T07:52:19;2.45;;;0.88;;
67049;SDS011;53955;52.442;13.284;2023-04-24T07:54:45;1.08;;;0.80;;
67049;SDS011;53955;52.442;13.284;2023-04-24T07:57:13;2.08;;;1.10;;
67049;SDS011;53955;52.442;13.284;2023-04-24T07:59:40;2.53;;;0.75;;
67049;SDS011;53955;52.442;13.284;2023-04-24T08:02:06;3.53;;;0.68;;
67049;SDS011;53955;52.442;13.284;2023-04-24T08:04:34;1.02;;;0.80;;
67049;SDS011;53955;52.442;13.284;2023-04-24T08:07:01;1.10;;;0.68;;
67049;SDS011;53955;52.442;13.284;2023-04-24T08:09:27;3.88;;;1.95;;
67049;SDS011;53955;52.442;13.284;2023-04-24T08:11:54;0.93;;;0.70;;
67049;SDS011;53955;52.442;13.284;2023-04-24T08:14:22;1.83;;;0.93;;
67049;SDS011;53955;52.442;13.284;2023-04-24T08:16:48;1.55;;;0.82;;
67049;SDS011;53955;52.442;13.284;2023-04-24T08:19:15;1.98;;;0.50;;
67049;SDS011;53955;52.442;13.284;2023-04-24T08:21:41;0.73;;;0.68;;
67049;SDS011;53955;52.442;13.284;2023-04-24T08:24:08;1.48;;;0.90;;
67049;SDS011;53955;52.442;13.284;2023-04-24T08:26:34;14.48;;;2.17;;
67049;SDS011;53955;52.442;13.284;2023-04-24T08:29:01;51.97;;;4.78;;
67049;SDS011;53955;52.442;13.284;2023-04-24T08:31:29;3.35;;;0.90;;
67049;SDS011;53955;52.442;13.284;2023-04-24T08:33:56;0.80;;;0.60;;
67049;SDS011;53955;52.442;13.284;2023-04-24T08:36:22;2.45;;;0.60;;
67049;SDS011;53955;52.442;13.284;2023-04-24T08:38:49;1.30;;;0.85;;
67049;SDS011;53955;52.442;13.284;2023-04-24T08:41:15;1.80;;;0.93;;
67049;SDS011;53955;52.442;13.284;2023-04-24T08:43:45;3.47;;;0.80;;
67049;SDS011;53955;52.442;13.284;2023-04-24T08:46:13;1.20;;;0.70;;
67049;SDS011;53955;52.442;13.284;2023-04-24T08:48:43;2.33;;;0.80;;
67049;SDS011;53955;52.442;13.284;2023-04-24T08:51:10;1.00;;;0.75;;
67049;SDS011;53955;52.442;13.284;2023-04-24T08:53:37;1.33;;;0.90;;
67049;SDS011;53955;52.442;13.284;2023-04-24T08:56:04;2.83;;;0.90;;
67049;SDS011;53955;52.442;13.284;2023-04-24T08:58:31;1.33;;;0.95;;
67049;SDS011;53955;52.442;13.284;2023-04-24T09:00:59;1.20;;;1.02;;
67049;SDS011;53955;52.442;13.284;2023-04-24T09:03:26;1.85;;;0.80;;
67049;SDS011;53955;52.442;13.284;2023-04-24T09:05:55;1.98;;;0.98;;
67049;SDS011;53955;52.442;13.284;2023-04-24T09:08:24;1.35;;;0.80;;
67049;SDS011;53955;52.442;13.284;2023-04-24T09:10:51;2.47;;;1.00;;
67049;SDS011;53955;52.442;13.284;2023-04-24T09:13:18;1.70;;;1.00;;
67049;SDS011;53955;52.442;13.284;2023-04-24T09:15:46;2.47;;;1.05;;
67049;SDS011;53955;52.442;13.284;2023-04-24T09:18:12;4.13;;;1.10;;
67049;SDS011;53955;52.442;13.284;2023-04-24T09:23:26;2.25;;;0.98;;
67049;SDS011;53955;52.442;13.284;2023-04-24T09:25:54;2.55;;;1.10;;
67049;SDS011;53955;52.442;13.284;2023-04-24T09:28:24;2.58;;;0.90;;
67049;SDS011;53955;52.442;13.284;2023-04-24T09:31:01;1.92;;;0.80;;
67049;SDS011;53955;52.442;13.284;2023-04-24T09:33:32;2.33;;;1.17;;
67049;SDS011;53955;52.442;13.284;2023-04-24T09:36:00;3.20;;;0.90;;
67049;SDS011;53955;52.442;13.284;2023-04-24T09:38:30;2.33;;;0.82;;
67049;SDS011;53955;52.442;13.284;2023-04-24T09:40:59;1.63;;;0.82;;
67049;SDS011;53955;52.442;13.284;2023-04-24T09:43:26;25.23;;;2.97;;
67049;SDS011;53955;52.442;13.284;2023-04-24T09:45:55;4.15;;;1.10;;
67049;SDS011;53955;52.442;13.284;2023-04-24T09:48:29;2.92;;;0.90;;
67049;SDS011;53955;52.442;13.284;2023-04-24T09:50:56;1.55;;;0.80;;
67049;SDS011;53955;52.442;13.284;2023-04-24T09:53:24;11.17;;;1.63;;
67049;SDS011;53955;52.442;13.284;2023-04-24T09:55:51;5.65;;;1.00;;
67049;SDS011;53955;52.442;13.284;2023-04-24T09:58:18;2.75;;;0.80;;
67049;SDS011;53955;52.442;13.284;2023-04-24T10:00:50;1.30;;;0.80;;
67049;SDS011;53955;52.442;13.284;2023-04-24T10:03:19;4.90;;;1.00;;
67049;SDS011;53955;52.442;13.284;2023-04-24T10:05:46;1.55;;;0.75;;
67049;SDS011;53955;52.442;13.284;2023-04-24T10:08:13;2.35;;;1.00;;
67049;SDS011;53955;52.442;13.284;2023-04-24T10:10:41;1.67;;;0.90;;
67049;SDS011;53955;52.442;13.284;2023-04-24T10:13:09;6.28;;;3.47;;
67049;SDS011;53955;52.442;13.284;2023-04-24T10:15:36;1.70;;;0.90;;
67049;SDS011;53955;52.442;13.284;2023-04-24T10:18:04;1.35;;;0.85;;
67049;SDS011;53955;52.442;13.284;2023-04-24T10:20:31;2.20;;;1.00;;
67049;SDS011;53955;52.442;13.284;2023-04-24T10:22:59;2.35;;;0.70;;
67049;SDS011;53955;52.442;13.284;2023-04-24T10:25:26;2.10;;;0.77;;
67049;SDS011;53955;52.442;13.284;2023-04-24T10:27:56;1.73;;;0.90;;
67049;SDS011;53955;52.442;13.284;2023-04-24T10:30:25;1.65;;;0.90;;
67049;SDS011;53955;52.442;13.284;2023-04-24T10:32:53;1.80;;;1.00;;
67049;SDS011;53955;52.442;13.284;2023-04-24T10:35:20;1.97;;;0.90;;
67049;SDS011;53955;52.442;13.284;2023-04-24T10:37:54;2.38;;;1.00;;
67049;SDS011;53955;52.442;13.284;2023-04-24T10:40:25;3.85;;;0.80;;
67049;SDS011;53955;52.442;13.284;2023-04-24T10:42:53;1.65;;;0.93;;
67049;SDS011;53955;52.442;13.284;2023-04-24T10:45:21;1.85;;;0.98;;
67049;SDS011;53955;52.442;13.284;2023-04-24T10:47:53;4.28;;;1.00;;
67049;SDS011;53955;52.442;13.284;2023-04-24T10:50:25;2.13;;;1.08;;
67049;SDS011;53955;52.442;13.284;2023-04-24T10:52:52;1.80;;;0.88;;
67049;SDS011;53955;52.442;13.284;2023-04-24T10:58:11;2.85;;;1.17;;
67049;SDS011;53955;52.442;13.284;2023-04-24T11:00:39;1.75;;;0.98;;
67049;SDS011;53955;52.442;13.284;2023-04-24T11:03:12;2.45;;;0.95;;
67049;SDS011;53955;52.442;13.284;2023-04-24T11:05:50;1.42;;;0.90;;
67049;SDS011;53955;52.442;13.284;2023-04-24T11:08:21;1.58;;;0.88;;
67049;SDS011;53955;52.442;13.284;2023-04-24T11:10:54;1.58;;;0.95;;
67049;SDS011;53955;52.442;13.284;2023-04-24T11:13:23;2.10;;;1.10;;
67049;SDS011;53955;52.442;13.284;2023-04-24T11:18:42;1.10;;;0.93;;
67049;SDS011;53955;52.442;13.284;2023-04-24T11:21:11;1.63;;;0.90;;
67049;SDS011;53955;52.442;13.284;2023-04-24T11:23:38;1.83;;;1.05;;
67049;SDS011;53955;52.442;13.284;2023-04-24T11:26:12;1.55;;;0.93;;
67049;SDS011;53955;52.442;13.284;2023-04-24T11:28:46;3.03;;;1.40;;
67049;SDS011;53955;52.442;13.284;2023-04-24T11:34:07;3.30;;;1.60;;
67049;SDS011;53955;52.442;13.284;2023-04-24T11:36:35;1.38;;;1.10;;
67049;SDS011;53955;52.442;13.284;2023-04-24T11:39:02;2.00;;;1.08;;
67049;SDS011;53955;52.442;13.284;2023-04-24T11:41:29;1.30;;;1.10;;
67049;SDS011;53955;52.442;13.284;2023-04-24T11:43:56;3.47;;;1.10;;
67049;SDS011;53955;52.442;13.284;2023-04-24T11:46:26;2.92;;;1.42;;
67049;SDS011;53955;52.442;13.284;2023-04-24T11:48:55;1.95;;;1.20;;
67049;SDS011;53955;52.442;13.284;2023-04-24T11:51:22;1.55;;;1.15;;
67049;SDS011;53955;52.442;13.284;2023-04-24T11:53:49;4.28;;;1.33;;
67049;SDS011;53955;52.442;13.284;2023-04-24T11:56:17;4.00;;;1.05;;
67049;SDS011;53955;52.442;13.284;2023-04-24T11:58:45;2.78;;;1.00;;
67049;SDS011;53955;52.442;13.284;2023-04-24T12:01:11;3.85;;;1.10;;
67049;SDS011;53955;52.442;13.284;2023-04-24T12:03:38;1.65;;;1.20;;
67049;SDS011;53955;52.442;13.284;2023-04-24T12:06:06;5.10;;;1.30;;
67049;SDS011;53955;52.442;13.284;2023-04-24T12:08:34;2.20;;;1.20;;
67049;SDS011;53955;52.442;13.284;2023-04-24T12:11:01;2.67;;;1.20;;
67049;SDS011;53955;52.442;13.284;2023-04-24T12:13:28;1.63;;;1.10;;
67049;SDS011;53955;52.442;13.284;2023-04-24T12:15:54;2.42;;;1.27;;
67049;SDS011;53955;52.442;13.284;2023-04-24T12:18:22;4.00;;;1.25;;
67049;SDS011;53955;52.442;13.284;2023-04-24T12:20:49;15.05;;;2.30;;
67049;SDS011;53955;52.442;13.284;2023-04-24T12:23:27;1.45;;;1.00;;
67049;SDS011;53955;52.442;13.284;2023-04-24T12:25:59;2.88;;;1.23;;
67049;SDS011;53955;52.442;13.284;2023-04-24T12:28:33;1.48;;;0.90;;
67049;SDS011;53955;52.442;13.284;2023-04-24T12:31:01;3.53;;;1.00;;
67049;SDS011;53955;52.442;13.284;2023-04-24T12:33:31;1.65;;;1.27;;
67049;SDS011;53955;52.442;13.284;2023-04-24T12:35:59;0.82;;;0.60;;
67049;SDS011;53955;52.442;13.284;2023-04-24T12:38:27;4.85;;;0.85;;
67049;SDS011;53955;52.442;13.284;2023-04-24T12:41:01;2.78;;;0.95;;
67049;SDS011;53955;52.442;13.284;2023-04-24T12:43:29;1.90;;;1.08;;
67049;SDS011;53955;52.442;13.284;2023-04-24T12:45:56;1.55;;;0.90;;
67049;SDS011;53955;52.442;13.284;2023-04-24T12:48:24;1.30;;;0.98;;
67049;SDS011;53955;52.442;13.284;2023-04-24T12:50:50;2.67;;;1.10;;
67049;SDS011;53955;52.442;13.284;2023-04-24T12:53:17;1.60;;;0.93;;
67049;SDS011;53955;52.442;13.284;2023-04-24T12:55:45;2.65;;;1.10;;
67049;SDS011;53955;52.442;13.284;2023-04-24T12:58:17;2.45;;;0.80;;
67049;SDS011;53955;52.442;13.284;2023-04-24T13:00:44;2.00;;;1.08;;
67049;SDS011;53955;52.442;13.284;2023-04-24T13:03:11;1.58;;;0.80;;
67049;SDS011;53955;52.442;13.284;2023-04-24T13:05:38;1.55;;;0.82;;
67049;SDS011;53955;52.442;13.284;2023-04-24T13:08:05;1.48;;;0.90;;
67049;SDS011;53955;52.442;13.284;2023-04-24T13:10:32;3.60;;;0.88;;
67049;SDS011;53955;52.442;13.284;2023-04-24T13:12:59;1.88;;;0.80;;
67049;SDS011;53955;52.442;13.284;2023-04-24T13:15:26;1.95;;;0.80;;
67049;SDS011;53955;52.442;13.284;2023-04-24T13:17:53;2.28;;;0.90;;
67049;SDS011;53955;52.442;13.284;2023-04-24T13:20:20;2.22;;;0.75;;
67049;SDS011;53955;52.442;13.284;2023-04-24T13:22:46;1.45;;;1.00;;
67049;SDS011;53955;52.442;13.284;2023-04-24T13:25:13;1.13;;;0.80;;
67049;SDS011;53955;52.442;13.284;2023-04-24T13:27:41;1.20;;;0.90;;
67049;SDS011;53955;52.442;13.284;2023-04-24T13:30:10;1.10;;;0.80;;
67049;SDS011;53955;52.442;13.284;2023-04-24T13:32:37;1.50;;;0.90;;
67049;SDS011;53955;52.442;13.284;2023-04-24T13:35:04;3.13;;;1.20;;
67049;SDS011;53955;52.442;13.284;2023-04-24T13:37:31;1.10;;;0.75;;
67049;SDS011;53955;52.442;13.284;2023-04-24T13:39:58;2.90;;;0.70;;
67049;SDS011;53955;52.442;13.284;2023-04-24T13:42:24;1.20;;;0.77;;
67049;SDS011;53955;52.442;13.284;2023-04-24T13:44:51;1.40;;;0.77;;
67049;SDS011;53955;52.442;13.284;2023-04-24T13:47:20;5.22;;;1.10;;
67049;SDS011;53955;52.442;13.284;2023-04-24T13:49:46;7.35;;;0.95;;
67049;SDS011;53955;52.442;13.284;2023-04-24T13:52:13;2.35;;;0.88;;
67049;SDS011;53955;52.442;13.284;2023-04-24T13:54:40;3.97;;;1.20;;
67049;SDS011;53955;52.442;13.284;2023-04-24T13:57:07;3.65;;;0.90;;
67049;SDS011;53955;52.442;13.284;2023-04-24T13:59:33;4.75;;;0.80;;
67049;SDS011;53955;52.442;13.284;2023-04-24T14:02:00;3.65;;;1.00;;
67049;SDS011;53955;52.442;13.284;2023-04-24T14:04:28;1.15;;;0.70;;
67049;SDS011;53955;52.442;13.284;2023-04-24T14:06:55;2.80;;;0.60;;
67049;SDS011;53955;52.442;13.284;2023-04-24T14:09:22;3.38;;;0.70;;
67049;SDS011;53955;52.442;13.284;2023-04-24T14:11:49;0.88;;;0.77;;
67049;SDS011;53955;52.442;13.284;2023-04-24T14:14:15;1.83;;;0.98;;
67049;SDS011;53955;52.442;13.284;2023-04-24T14:16:42;1.98;;;0.80;;
67049;SDS011;53955;52.442;13.284;2023-04-24T14:19:08;1.67;;;0.90;;
67049;SDS011;53955;52.442;13.284;2023-04-24T14:21:36;3.90;;;1.17;;
67049;SDS011;53955;52.442;13.284;2023-04-24T14:24:03;2.60;;;1.00;;
67049;SDS011;53955;52.442;13.284;2023-04-24T14:26:30;2.13;;;0.90;;
67049;SDS011;53955;52.442;13.284;2023-04-24T14:28:57;1.73;;;0.82;;
67049;SDS011;53955;52.442;13.284;2023-04-24T14:31:24;1.75;;;1.00;;
67049;SDS011;53955;52.442;13.284;2023-04-24T14:33:51;1.33;;;0.98;;
67049;SDS011;53955;52.442;13.284;2023-04-24T14:36:17;4.10;;;1.00;;
67049;SDS011;53955;52.442;13.284;2023-04-24T14:38:46;4.50;;;1.05;;
67049;SDS011;53955;52.442;13.284;2023-04-24T14:41:12;3.63;;;1.10;;
67049;SDS011;53955;52.442;13.284;2023-04-24T14:43:39;5.30;;;1.00;;
67049;SDS011;53955;52.442;13.284;2023-04-24T14:46:06;8.65;;;1.15;;